sensor_id;sensor_type;location;lat;lon;timestamp;P1;durP1;ratioP1;P2;durP2;ratioP2
40471;SDS011;26174;42.908;23.800;2023-04-03T00:02:10;8.52;;;5.07;;
40471;SDS011;26174;42.908;23.800;2023-04-03T00:04:36;6.72;;;4.47;;
40471;SDS011;26174;42.908;23.800;2023-04-03T00:07:01;9.57;;;4.07;;
40471;SDS011;26174;42.908;23.800;2023-04-03T00:09:27;11.55;;;4.22;;
40471;SDS011;26174;42.908;23.800;2023-04-03T00:11:52;8.30;;;4.40;;
40471;SDS011;26174;42.908;23.800;2023-04-03T00:14:18;8.10;;;4.60;;
40471;SDS011;26174;42.908;23.800;2023-04-03T00:16:44;12.80;;;5.65;;
40471;SDS011;26174;42.908;23.800;2023-04-03T00:19:09;9.10;;;4.82;;
40471;SDS011;26174;42.908;23.800;2023-04-03T00:21:37;10.73;;;5.43;;
40471;SDS011;26174;42.908;23.800;2023-04-03T00:24:02;8.63;;;4.97;;
40471;SDS011;26174;42.908;23.800;2023-04-03T00:26:28;11.48;;;4.90;;
40471;SDS011;26174;42.908;23.800;2023-04-03T00:28:54;7.95;;;4.45;;
40471;SDS011;26174;42.908;23.800;2023-04-03T00:31:20;8.75;;;4.95;;
40471;SDS011;26174;42.908;23.800;2023-04-03T00:33:45;9.20;;;4.82;;
40471;SDS011;26174;42.908;23.800;2023-04-03T00:36:11;9.25;;;4.75;;
40471;SDS011;26174;42.908;23.800;2023-04-03T00:38:37;10.65;;;4.90;;
40471;SDS011;26174;42.908;23.800;2023-04-03T00:41:03;7.55;;;4.68;;
40471;SDS011;26174;42.908;23.800;2023-04-03T00:43:29;10.05;;;5.75;;
40471;SDS011;26174;42.908;23.800;2023-04-03T00:45:56;10.07;;;4.97;;
40471;SDS011;26174;42.908;23.800;2023-04-03T00:50:56;7.20;;;4.18;;
40471;SDS011;26174;42.908;23.800;2023-04-03T00:53:23;9.93;;;4.57;;
40471;SDS011;26174;42.908;23.800;2023-04-03T00:55:51;8.57;;;3.88;;
40471;SDS011;26174;42.908;23.800;2023-04-03T00:58:18;8.50;;;4.15;;
40471;SDS011;26174;42.908;23.800;2023-04-03T01:00:46;6.72;;;3.90;;
40471;SDS011;26174;42.908;23.800;2023-04-03T01:03:15;7.93;;;4.30;;
40471;SDS011;26174;42.908;23.800;2023-04-03T01:05:40;10.05;;;4.68;;
40471;SDS011;26174;42.908;23.800;2023-04-03T01:08:06;7.05;;;4.50;;
40471;SDS011;26174;42.908;23.800;2023-04-03T01:10:31;8.57;;;4.38;;
40471;SDS011;26174;42.908;23.800;2023-04-03T01:12:57;7.65;;;4.10;;
40471;SDS011;26174;42.908;23.800;2023-04-03T01:15:25;9.30;;;4.22;;
40471;SDS011;26174;42.908;23.800;2023-04-03T01:17:54;8.63;;;4.18;;
40471;SDS011;26174;42.908;23.800;2023-04-03T01:25:51;8.05;;;4.45;;
40471;SDS011;26174;42.908;23.800;2023-04-03T01:28:23;7.28;;;4.50;;
40471;SDS011;26174;42.908;23.800;2023-04-03T01:33:30;7.82;;;4.10;;
40471;SDS011;26174;42.908;23.800;2023-04-03T01:35:55;7.65;;;3.80;;
40471;SDS011;26174;42.908;23.800;2023-04-03T01:38:21;5.45;;;3.50;;
40471;SDS011;26174;42.908;23.800;2023-04-03T01:40:47;6.03;;;3.97;;
40471;SDS011;26174;42.908;23.800;2023-04-03T01:43:12;7.05;;;4.47;;
40471;SDS011;26174;42.908;23.800;2023-04-03T01:45:38;6.65;;;4.47;;
40471;SDS011;26174;42.908;23.800;2023-04-03T01:48:03;6.28;;;4.22;;
40471;SDS011;26174;42.908;23.800;2023-04-03T01:50:30;9.13;;;3.85;;
40471;SDS011;26174;42.908;23.800;2023-04-03T01:52:55;8.43;;;4.22;;
40471;SDS011;26174;42.908;23.800;2023-04-03T01:55:21;13.88;;;3.92;;
40471;SDS011;26174;42.908;23.800;2023-04-03T01:57:47;6.70;;;3.78;;
40471;SDS011;26174;42.908;23.800;2023-04-03T02:00:12;8.70;;;4.05;;
40471;SDS011;26174;42.908;23.800;2023-04-03T02:02:38;6.55;;;4.10;;
40471;SDS011;26174;42.908;23.800;2023-04-03T02:05:04;7.72;;;4.60;;
40471;SDS011;26174;42.908;23.800;2023-04-03T02:07:30;7.85;;;4.75;;
40471;SDS011;26174;42.908;23.800;2023-04-03T02:09:59;15.98;;;4.53;;
40471;SDS011;26174;42.908;23.800;2023-04-03T02:12:24;8.48;;;4.53;;
40471;SDS011;26174;42.908;23.800;2023-04-03T02:14:50;14.13;;;4.95;;
40471;SDS011;26174;42.908;23.800;2023-04-03T02:17:15;12.38;;;5.72;;
40471;SDS011;26174;42.908;23.800;2023-04-03T02:19:41;13.07;;;4.97;;
40471;SDS011;26174;42.908;23.800;2023-04-03T02:22:06;11.90;;;6.13;;
40471;SDS011;26174;42.908;23.800;2023-04-03T02:24:32;10.27;;;4.55;;
40471;SDS011;26174;42.908;23.800;2023-04-03T02:26:58;8.75;;;4.90;;
40471;SDS011;26174;42.908;23.800;2023-04-03T02:29:24;13.63;;;5.47;;
40471;SDS011;26174;42.908;23.800;2023-04-03T02:31:50;9.38;;;5.05;;
40471;SDS011;26174;42.908;23.800;2023-04-03T02:34:16;7.22;;;4.45;;
40471;SDS011;26174;42.908;23.800;2023-04-03T02:36:41;11.23;;;5.38;;
40471;SDS011;26174;42.908;23.800;2023-04-03T02:39:07;10.30;;;4.53;;
40471;SDS011;26174;42.908;23.800;2023-04-03T02:41:33;10.50;;;4.20;;
40471;SDS011;26174;42.908;23.800;2023-04-03T02:44:04;13.52;;;4.43;;
40471;SDS011;26174;42.908;23.800;2023-04-03T02:46:31;11.95;;;4.90;;
40471;SDS011;26174;42.908;23.800;2023-04-03T02:48:57;11.40;;;4.57;;
40471;SDS011;26174;42.908;23.800;2023-04-03T02:51:22;16.30;;;4.82;;
40471;SDS011;26174;42.908;23.800;2023-04-03T02:53:48;7.60;;;4.20;;
40471;SDS011;26174;42.908;23.800;2023-04-03T02:56:14;7.65;;;4.22;;
40471;SDS011;26174;42.908;23.800;2023-04-03T02:58:40;17.17;;;4.60;;
40471;SDS011;26174;42.908;23.800;2023-04-03T03:01:06;11.60;;;5.13;;
40471;SDS011;26174;42.908;23.800;2023-04-03T03:03:31;6.82;;;3.88;;
40471;SDS011;26174;42.908;23.800;2023-04-03T03:06:05;10.25;;;4.47;;
40471;SDS011;26174;42.908;23.800;2023-04-03T03:08:32;26.45;;;7.68;;
40471;SDS011;26174;42.908;23.800;2023-04-03T03:10:58;15.52;;;5.15;;
40471;SDS011;26174;42.908;23.800;2023-04-03T03:13:23;16.73;;;5.65;;
40471;SDS011;26174;42.908;23.800;2023-04-03T03:15:49;21.25;;;5.22;;
40471;SDS011;26174;42.908;23.800;2023-04-03T03:18:15;11.43;;;4.68;;
40471;SDS011;26174;42.908;23.800;2023-04-03T03:20:40;8.43;;;4.35;;
40471;SDS011;26174;42.908;23.800;2023-04-03T03:23:06;16.70;;;5.20;;
40471;SDS011;26174;42.908;23.800;2023-04-03T03:25:31;11.40;;;5.18;;
40471;SDS011;26174;42.908;23.800;2023-04-03T03:27:57;9.45;;;5.20;;
40471;SDS011;26174;42.908;23.800;2023-04-03T03:30:23;9.82;;;5.60;;
40471;SDS011;26174;42.908;23.800;2023-04-03T03:32:48;16.83;;;6.05;;
40471;SDS011;26174;42.908;23.800;2023-04-03T03:35:14;19.05;;;6.20;;
40471;SDS011;26174;42.908;23.800;2023-04-03T03:37:39;10.75;;;5.30;;
40471;SDS011;26174;42.908;23.800;2023-04-03T03:40:05;16.08;;;6.72;;
40471;SDS011;26174;42.908;23.800;2023-04-03T03:42:31;16.23;;;6.90;;
40471;SDS011;26174;42.908;23.800;2023-04-03T03:44:57;10.68;;;5.65;;
40471;SDS011;26174;42.908;23.800;2023-04-03T03:47:22;25.60;;;9.82;;
40471;SDS011;26174;42.908;23.800;2023-04-03T03:49:48;24.65;;;10.80;;
40471;SDS011;26174;42.908;23.800;2023-04-03T03:52:13;25.98;;;13.27;;
40471;SDS011;26174;42.908;23.800;2023-04-03T03:54:39;18.08;;;8.95;;
40471;SDS011;26174;42.908;23.800;2023-04-03T03:57:04;21.90;;;10.18;;
40471;SDS011;26174;42.908;23.800;2023-04-03T03:59:30;14.27;;;6.07;;
40471;SDS011;26174;42.908;23.800;2023-04-03T04:01:56;23.63;;;8.25;;
40471;SDS011;26174;42.908;23.800;2023-04-03T04:04:21;16.13;;;8.13;;
40471;SDS011;26174;42.908;23.800;2023-04-03T04:06:47;13.55;;;7.15;;
40471;SDS011;26174;42.908;23.800;2023-04-03T04:09:13;7.65;;;4.70;;
40471;SDS011;26174;42.908;23.800;2023-04-03T04:11:38;16.48;;;6.97;;
40471;SDS011;26174;42.908;23.800;2023-04-03T04:14:05;22.45;;;6.85;;
40471;SDS011;26174;42.908;23.800;2023-04-03T04:16:31;13.70;;;5.40;;
40471;SDS011;26174;42.908;23.800;2023-04-03T04:18:57;17.77;;;4.97;;
40471;SDS011;26174;42.908;23.800;2023-04-03T04:21:22;14.43;;;5.50;;
40471;SDS011;26174;42.908;23.800;2023-04-03T04:23:48;9.85;;;4.82;;
40471;SDS011;26174;42.908;23.800;2023-04-03T04:26:13;20.15;;;4.90;;
40471;SDS011;26174;42.908;23.800;2023-04-03T04:28:39;16.10;;;4.95;;
40471;SDS011;26174;42.908;23.800;2023-04-03T04:31:05;10.90;;;5.07;;
40471;SDS011;26174;42.908;23.800;2023-04-03T04:33:30;13.23;;;6.05;;
40471;SDS011;26174;42.908;23.800;2023-04-03T04:35:56;21.92;;;6.57;;
40471;SDS011;26174;42.908;23.800;2023-04-03T04:38:21;11.30;;;5.28;;
40471;SDS011;26174;42.908;23.800;2023-04-03T04:40:47;23.27;;;7.05;;
40471;SDS011;26174;42.908;23.800;2023-04-03T04:43:13;20.60;;;6.47;;
40471;SDS011;26174;42.908;23.800;2023-04-03T04:45:40;9.13;;;5.63;;
40471;SDS011;26174;42.908;23.800;2023-04-03T04:48:06;13.95;;;7.47;;
40471;SDS011;26174;42.908;23.800;2023-04-03T04:50:31;25.92;;;8.13;;
40471;SDS011;26174;42.908;23.800;2023-04-03T04:52:57;24.05;;;7.90;;
40471;SDS011;26174;42.908;23.800;2023-04-03T04:55:22;36.42;;;11.13;;
40471;SDS011;26174;42.908;23.800;2023-04-03T04:57:48;18.60;;;8.48;;
40471;SDS011;26174;42.908;23.800;2023-04-03T05:00:14;15.73;;;7.05;;
40471;SDS011;26174;42.908;23.800;2023-04-03T05:02:40;19.13;;;7.95;;
40471;SDS011;26174;42.908;23.800;2023-04-03T05:05:05;13.98;;;6.75;;
40471;SDS011;26174;42.908;23.800;2023-04-03T05:07:31;28.67;;;9.38;;
40471;SDS011;26174;42.908;23.800;2023-04-03T05:09:57;28.95;;;10.15;;
40471;SDS011;26174;42.908;23.800;2023-04-03T05:12:23;38.38;;;9.80;;
40471;SDS011;26174;42.908;23.800;2023-04-03T05:14:48;19.73;;;8.30;;
40471;SDS011;26174;42.908;23.800;2023-04-03T05:17:14;27.20;;;8.68;;
40471;SDS011;26174;42.908;23.800;2023-04-03T05:19:40;32.47;;;9.45;;
40471;SDS011;26174;42.908;23.800;2023-04-03T05:22:05;33.05;;;10.05;;
40471;SDS011;26174;42.908;23.800;2023-04-03T05:24:31;25.13;;;10.02;;
40471;SDS011;26174;42.908;23.800;2023-04-03T05:26:56;17.13;;;8.32;;
40471;SDS011;26174;42.908;23.800;2023-04-03T05:29:22;25.85;;;9.70;;
40471;SDS011;26174;42.908;23.800;2023-04-03T05:31:50;35.60;;;11.63;;
40471;SDS011;26174;42.908;23.800;2023-04-03T05:34:16;24.95;;;9.73;;
40471;SDS011;26174;42.908;23.800;2023-04-03T05:36:41;27.30;;;13.38;;
40471;SDS011;26174;42.908;23.800;2023-04-03T05:39:08;27.00;;;11.10;;
40471;SDS011;26174;42.908;23.800;2023-04-03T05:41:33;30.40;;;11.23;;
40471;SDS011;26174;42.908;23.800;2023-04-03T05:43:59;37.13;;;11.80;;
40471;SDS011;26174;42.908;23.800;2023-04-03T05:46:25;37.63;;;17.15;;
40471;SDS011;26174;42.908;23.800;2023-04-03T05:48:50;70.63;;;27.73;;
40471;SDS011;26174;42.908;23.800;2023-04-03T05:51:22;39.53;;;18.20;;
40471;SDS011;26174;42.908;23.800;2023-04-03T05:53:52;24.17;;;12.25;;
40471;SDS011;26174;42.908;23.800;2023-04-03T05:56:22;44.47;;;13.77;;
40471;SDS011;26174;42.908;23.800;2023-04-03T05:58:47;27.40;;;13.73;;
40471;SDS011;26174;42.908;23.800;2023-04-03T06:01:13;28.15;;;11.02;;
40471;SDS011;26174;42.908;23.800;2023-04-03T06:03:39;23.80;;;11.95;;
40471;SDS011;26174;42.908;23.800;2023-04-03T06:06:05;20.17;;;8.50;;
40471;SDS011;26174;42.908;23.800;2023-04-03T06:08:31;28.88;;;14.25;;
40471;SDS011;26174;42.908;23.800;2023-04-03T06:10:57;30.65;;;13.98;;
40471;SDS011;26174;42.908;23.800;2023-04-03T06:13:22;31.25;;;14.02;;
40471;SDS011;26174;42.908;23.800;2023-04-03T06:15:48;34.10;;;13.35;;
40471;SDS011;26174;42.908;23.800;2023-04-03T06:18:14;41.85;;;15.18;;
40471;SDS011;26174;42.908;23.800;2023-04-03T06:20:40;34.22;;;16.65;;
40471;SDS011;26174;42.908;23.800;2023-04-03T06:23:06;39.55;;;15.88;;
40471;SDS011;26174;42.908;23.800;2023-04-03T06:25:32;36.67;;;11.57;;
40471;SDS011;26174;42.908;23.800;2023-04-03T06:27:58;18.35;;;10.13;;
40471;SDS011;26174;42.908;23.800;2023-04-03T06:30:24;17.77;;;9.68;;
40471;SDS011;26174;42.908;23.800;2023-04-03T06:32:49;22.40;;;10.57;;
40471;SDS011;26174;42.908;23.800;2023-04-03T06:35:15;21.52;;;9.00;;
40471;SDS011;26174;42.908;23.800;2023-04-03T06:37:41;25.60;;;8.50;;
40471;SDS011;26174;42.908;23.800;2023-04-03T06:40:06;17.17;;;8.13;;
40471;SDS011;26174;42.908;23.800;2023-04-03T06:42:35;19.70;;;8.80;;
40471;SDS011;26174;42.908;23.800;2023-04-03T06:45:01;24.70;;;11.95;;
40471;SDS011;26174;42.908;23.800;2023-04-03T06:47:26;25.50;;;10.57;;
40471;SDS011;26174;42.908;23.800;2023-04-03T06:49:52;21.60;;;10.18;;
40471;SDS011;26174;42.908;23.800;2023-04-03T06:52:17;23.50;;;9.20;;
40471;SDS011;26174;42.908;23.800;2023-04-03T06:54:43;23.95;;;9.40;;
40471;SDS011;26174;42.908;23.800;2023-04-03T06:57:09;21.27;;;9.63;;
40471;SDS011;26174;42.908;23.800;2023-04-03T06:59:34;17.70;;;8.82;;
40471;SDS011;26174;42.908;23.800;2023-04-03T07:02:00;20.90;;;9.68;;
40471;SDS011;26174;42.908;23.800;2023-04-03T07:04:26;21.45;;;9.43;;
40471;SDS011;26174;42.908;23.800;2023-04-03T07:06:51;19.17;;;9.77;;
40471;SDS011;26174;42.908;23.800;2023-04-03T07:09:17;23.80;;;9.90;;
40471;SDS011;26174;42.908;23.800;2023-04-03T07:11:43;14.85;;;8.50;;
40471;SDS011;26174;42.908;23.800;2023-04-03T07:14:09;19.17;;;9.27;;
40471;SDS011;26174;42.908;23.800;2023-04-03T07:16:35;27.75;;;10.25;;
40471;SDS011;26174;42.908;23.800;2023-04-03T07:19:01;21.95;;;9.23;;
40471;SDS011;26174;42.908;23.800;2023-04-03T07:21:27;17.85;;;8.90;;
40471;SDS011;26174;42.908;23.800;2023-04-03T07:23:53;24.20;;;8.82;;
40471;SDS011;26174;42.908;23.800;2023-04-03T07:26:18;17.67;;;9.38;;
40471;SDS011;26174;42.908;23.800;2023-04-03T07:28:45;20.88;;;8.48;;
40471;SDS011;26174;42.908;23.800;2023-04-03T07:31:13;17.35;;;9.77;;
40471;SDS011;26174;42.908;23.800;2023-04-03T07:33:40;13.68;;;7.70;;
40471;SDS011;26174;42.908;23.800;2023-04-03T07:36:06;15.57;;;7.60;;
40471;SDS011;26174;42.908;23.800;2023-04-03T07:38:33;15.93;;;7.68;;
40471;SDS011;26174;42.908;23.800;2023-04-03T07:41:00;13.63;;;7.35;;
40471;SDS011;26174;42.908;23.800;2023-04-03T07:43:27;19.65;;;8.05;;
40471;SDS011;26174;42.908;23.800;2023-04-03T07:45:52;15.20;;;6.13;;
40471;SDS011;26174;42.908;23.800;2023-04-03T07:48:23;16.58;;;6.88;;
40471;SDS011;26174;42.908;23.800;2023-04-03T07:50:50;19.35;;;8.85;;
40471;SDS011;26174;42.908;23.800;2023-04-03T07:53:16;17.48;;;10.40;;
40471;SDS011;26174;42.908;23.800;2023-04-03T07:55:42;16.95;;;9.07;;
40471;SDS011;26174;42.908;23.800;2023-04-03T07:58:12;10.43;;;5.85;;
40471;SDS011;26174;42.908;23.800;2023-04-03T08:00:39;7.83;;;4.67;;
40471;SDS011;26174;42.908;23.800;2023-04-03T08:03:05;10.05;;;5.43;;
40471;SDS011;26174;42.908;23.800;2023-04-03T08:05:36;11.00;;;5.13;;
40471;SDS011;26174;42.908;23.800;2023-04-03T08:08:02;9.98;;;4.78;;
40471;SDS011;26174;42.908;23.800;2023-04-03T08:10:29;11.35;;;4.68;;
40471;SDS011;26174;42.908;23.800;2023-04-03T08:12:55;5.78;;;3.53;;
40471;SDS011;26174;42.908;23.800;2023-04-03T08:15:20;7.07;;;4.38;;
40471;SDS011;26174;42.908;23.800;2023-04-03T08:17:46;16.52;;;7.95;;
40471;SDS011;26174;42.908;23.800;2023-04-03T08:20:12;11.27;;;6.03;;
40471;SDS011;26174;42.908;23.800;2023-04-03T08:22:37;10.52;;;6.35;;
40471;SDS011;26174;42.908;23.800;2023-04-03T08:25:03;32.63;;;17.20;;
40471;SDS011;26174;42.908;23.800;2023-04-03T08:27:29;14.98;;;7.75;;
40471;SDS011;26174;42.908;23.800;2023-04-03T08:29:55;13.55;;;7.13;;
40471;SDS011;26174;42.908;23.800;2023-04-03T08:32:22;14.52;;;7.45;;
40471;SDS011;26174;42.908;23.800;2023-04-03T08:34:48;14.02;;;7.70;;
40471;SDS011;26174;42.908;23.800;2023-04-03T08:37:13;17.73;;;8.40;;
40471;SDS011;26174;42.908;23.800;2023-04-03T08:39:41;15.25;;;7.38;;
40471;SDS011;26174;42.908;23.800;2023-04-03T08:42:34;11.60;;;6.47;;
40471;SDS011;26174;42.908;23.800;2023-04-03T08:45:00;11.75;;;6.55;;
40471;SDS011;26174;42.908;23.800;2023-04-03T08:47:42;10.18;;;6.25;;
40471;SDS011;26174;42.908;23.800;2023-04-03T08:50:14;10.25;;;5.53;;
40471;SDS011;26174;42.908;23.800;2023-04-03T08:52:43;10.77;;;6.07;;
40471;SDS011;26174;42.908;23.800;2023-04-03T08:58:06;30.63;;;17.73;;
40471;SDS011;26174;42.908;23.800;2023-04-03T09:00:49;16.83;;;6.10;;
40471;SDS011;26174;42.908;23.800;2023-04-03T09:03:17;22.23;;;9.05;;
40471;SDS011;26174;42.908;23.800;2023-04-03T09:06:45;10.75;;;5.88;;
40471;SDS011;26174;42.908;23.800;2023-04-03T09:24:42;4.28;;;3.05;;
40471;SDS011;26174;42.908;23.800;2023-04-03T09:27:10;8.85;;;3.67;;
40471;SDS011;26174;42.908;23.800;2023-04-03T09:29:39;6.40;;;2.72;;
40471;SDS011;26174;42.908;23.800;2023-04-03T09:32:18;5.45;;;3.05;;
40471;SDS011;26174;42.908;23.800;2023-04-03T09:34:43;16.60;;;8.38;;
40471;SDS011;26174;42.908;23.800;2023-04-03T09:37:09;4.32;;;2.67;;
40471;SDS011;26174;42.908;23.800;2023-04-03T09:42:54;7.75;;;3.78;;
40471;SDS011;26174;42.908;23.800;2023-04-03T09:45:31;13.43;;;4.70;;
40471;SDS011;26174;42.908;23.800;2023-04-03T09:48:20;8.48;;;3.65;;
40471;SDS011;26174;42.908;23.800;2023-04-03T09:53:35;10.52;;;3.40;;
40471;SDS011;26174;42.908;23.800;2023-04-03T09:56:26;6.03;;;4.07;;
40471;SDS011;26174;42.908;23.800;2023-04-03T10:01:28;3.03;;;2.05;;
40471;SDS011;26174;42.908;23.800;2023-04-03T10:06:40;44.42;;;24.80;;
40471;SDS011;26174;42.908;23.800;2023-04-03T10:09:31;17.10;;;8.63;;
40471;SDS011;26174;42.908;23.800;2023-04-03T10:12:05;12.52;;;7.13;;
40471;SDS011;26174;42.908;23.800;2023-04-03T10:14:53;7.13;;;1.60;;
40471;SDS011;26174;42.908;23.800;2023-04-03T10:25:17;1.77;;;1.30;;
40471;SDS011;26174;42.908;23.800;2023-04-03T10:30:36;1.67;;;1.08;;
40471;SDS011;26174;42.908;23.800;2023-04-03T10:41:20;1.17;;;1.00;;
40471;SDS011;26174;42.908;23.800;2023-04-03T10:46:23;1.77;;;1.00;;
40471;SDS011;26174;42.908;23.800;2023-04-03T10:56:50;4.65;;;0.95;;
40471;SDS011;26174;42.908;23.800;2023-04-03T11:01:53;1.88;;;1.02;;
40471;SDS011;26174;42.908;23.800;2023-04-03T11:04:21;8.60;;;2.45;;
40471;SDS011;26174;42.908;23.800;2023-04-03T11:06:56;2.17;;;1.17;;
40471;SDS011;26174;42.908;23.800;2023-04-03T11:09:27;2.17;;;1.00;;
40471;SDS011;26174;42.908;23.800;2023-04-03T11:12:04;3.35;;;1.85;;
40471;SDS011;26174;42.908;23.800;2023-04-03T11:14:36;3.83;;;1.90;;
40471;SDS011;26174;42.908;23.800;2023-04-03T11:17:05;2.47;;;1.42;;
40471;SDS011;26174;42.908;23.800;2023-04-03T11:22:41;4.18;;;1.20;;
40471;SDS011;26174;42.908;23.800;2023-04-03T11:27:50;3.63;;;2.30;;
40471;SDS011;26174;42.908;23.800;2023-04-03T11:34:31;5.78;;;2.13;;
40471;SDS011;26174;42.908;23.800;2023-04-03T11:36:51;3.13;;;2.10;;
40471;SDS011;26174;42.908;23.800;2023-04-03T11:39:27;4.68;;;2.20;;
40471;SDS011;26174;42.908;23.800;2023-04-03T11:41:54;4.85;;;2.75;;
40471;SDS011;26174;42.908;23.800;2023-04-03T11:44:34;10.95;;;4.25;;
40471;SDS011;26174;42.908;23.800;2023-04-03T11:47:02;7.75;;;3.40;;
40471;SDS011;26174;42.908;23.800;2023-04-03T12:05:53;3.33;;;2.50;;
40471;SDS011;26174;42.908;23.800;2023-04-03T12:08:29;38.65;;;12.25;;
40471;SDS011;26174;42.908;23.800;2023-04-03T12:22:04;4.30;;;2.00;;
40471;SDS011;26174;42.908;23.800;2023-04-03T12:27:09;7.05;;;3.67;;
40471;SDS011;26174;42.908;23.800;2023-04-03T12:29:55;12.10;;;5.75;;
40471;SDS011;26174;42.908;23.800;2023-04-03T12:46:03;3.47;;;2.30;;
40471;SDS011;26174;42.908;23.800;2023-04-03T12:48:39;4.57;;;2.25;;
40471;SDS011;26174;42.908;23.800;2023-04-03T12:56:45;6.10;;;3.47;;
40471;SDS011;26174;42.908;23.800;2023-04-03T12:59:21;6.68;;;3.17;;
40471;SDS011;26174;42.908;23.800;2023-04-03T13:06:46;14.70;;;7.03;;
40471;SDS011;26174;42.908;23.800;2023-04-03T13:09:22;4.75;;;3.47;;
40471;SDS011;26174;42.908;23.800;2023-04-03T13:11:49;10.00;;;3.92;;
40471;SDS011;26174;42.908;23.800;2023-04-03T13:14:20;34.47;;;17.30;;
40471;SDS011;26174;42.908;23.800;2023-04-03T13:19:22;8.32;;;4.63;;
40471;SDS011;26174;42.908;23.800;2023-04-03T13:21:48;7.80;;;3.72;;
40471;SDS011;26174;42.908;23.800;2023-04-03T13:24:14;11.80;;;5.63;;
40471;SDS011;26174;42.908;23.800;2023-04-03T13:26:40;5.90;;;3.72;;
40471;SDS011;26174;42.908;23.800;2023-04-03T13:29:07;6.72;;;4.10;;
40471;SDS011;26174;42.908;23.800;2023-04-03T13:31:45;10.18;;;5.40;;
40471;SDS011;26174;42.908;23.800;2023-04-03T13:34:12;8.60;;;5.00;;
40471;SDS011;26174;42.908;23.800;2023-04-03T13:41:46;5.63;;;2.85;;
40471;SDS011;26174;42.908;23.800;2023-04-03T13:46:55;5.85;;;3.58;;
40471;SDS011;26174;42.908;23.800;2023-04-03T13:49:32;4.85;;;3.28;;
40471;SDS011;26174;42.908;23.800;2023-04-03T13:52:02;6.78;;;4.30;;
40471;SDS011;26174;42.908;23.800;2023-04-03T13:54:47;0.60;;;0.57;;
40471;SDS011;26174;42.908;23.800;2023-04-03T13:57:17;0.82;;;0.82;;
40471;SDS011;26174;42.908;23.800;2023-04-03T13:59:43;1.75;;;0.70;;
40471;SDS011;26174;42.908;23.800;2023-04-03T14:02:18;2.00;;;1.27;;
40471;SDS011;26174;42.908;23.800;2023-04-03T14:04:50;4.28;;;2.17;;
40471;SDS011;26174;42.908;23.800;2023-04-03T14:07:23;1.67;;;1.20;;
40471;SDS011;26174;42.908;23.800;2023-04-03T14:09:50;2.50;;;1.75;;
40471;SDS011;26174;42.908;23.800;2023-04-03T14:14:45;1.45;;;0.80;;
40471;SDS011;26174;42.908;23.800;2023-04-03T14:17:18;0.93;;;0.70;;
40471;SDS011;26174;42.908;23.800;2023-04-03T14:19:46;1.30;;;0.95;;
40471;SDS011;26174;42.908;23.800;2023-04-03T14:22:15;5.50;;;3.28;;
40471;SDS011;26174;42.908;23.800;2023-04-03T14:24:43;4.50;;;1.10;;
40471;SDS011;26174;42.908;23.800;2023-04-03T14:27:43;1.02;;;1.00;;
40471;SDS011;26174;42.908;23.800;2023-04-03T14:30:06;2.42;;;1.02;;
40471;SDS011;26174;42.908;23.800;2023-04-03T14:32:34;1.98;;;1.42;;
40471;SDS011;26174;42.908;23.800;2023-04-03T14:35:00;1.73;;;1.40;;
40471;SDS011;26174;42.908;23.800;2023-04-03T14:37:27;1.10;;;1.00;;
40471;SDS011;26174;42.908;23.800;2023-04-03T14:39:54;1.58;;;0.98;;
40471;SDS011;26174;42.908;23.800;2023-04-03T14:42:22;2.90;;;0.77;;
40471;SDS011;26174;42.908;23.800;2023-04-03T14:44:51;2.72;;;1.35;;
40471;SDS011;26174;42.908;23.800;2023-04-03T14:47:22;2.40;;;1.85;;
40471;SDS011;26174;42.908;23.800;2023-04-03T14:49:49;8.00;;;3.20;;
40471;SDS011;26174;42.908;23.800;2023-04-03T14:52:19;2.83;;;2.20;;
40471;SDS011;26174;42.908;23.800;2023-04-03T14:54:45;4.55;;;2.67;;
40471;SDS011;26174;42.908;23.800;2023-04-03T14:57:31;3.63;;;2.33;;
40471;SDS011;26174;42.908;23.800;2023-04-03T14:59:57;3.22;;;1.65;;
40471;SDS011;26174;42.908;23.800;2023-04-03T15:02:25;3.20;;;1.73;;
40471;SDS011;26174;42.908;23.800;2023-04-03T15:04:51;3.42;;;2.13;;
40471;SDS011;26174;42.908;23.800;2023-04-03T15:07:16;29.30;;;12.07;;
40471;SDS011;26174;42.908;23.800;2023-04-03T15:09:42;14.63;;;6.15;;
40471;SDS011;26174;42.908;23.800;2023-04-03T15:12:08;6.15;;;1.33;;
40471;SDS011;26174;42.908;23.800;2023-04-03T15:14:35;1.35;;;0.98;;
40471;SDS011;26174;42.908;23.800;2023-04-03T15:17:01;3.58;;;2.03;;
40471;SDS011;26174;42.908;23.800;2023-04-03T15:19:28;3.88;;;2.60;;
40471;SDS011;26174;42.908;23.800;2023-04-03T15:21:53;0.98;;;0.93;;
40471;SDS011;26174;42.908;23.800;2023-04-03T15:24:19;2.50;;;1.15;;
40471;SDS011;26174;42.908;23.800;2023-04-03T15:26:44;3.00;;;0.47;;
40471;SDS011;26174;42.908;23.800;2023-04-03T15:29:10;1.23;;;1.13;;
40471;SDS011;26174;42.908;23.800;2023-04-03T15:31:35;0.55;;;0.55;;
40471;SDS011;26174;42.908;23.800;2023-04-03T15:34:01;9.77;;;4.53;;
40471;SDS011;26174;42.908;23.800;2023-04-03T15:36:28;6.13;;;2.08;;
40471;SDS011;26174;42.908;23.800;2023-04-03T15:38:53;3.72;;;0.93;;
40471;SDS011;26174;42.908;23.800;2023-04-03T15:41:19;0.80;;;0.80;;
40471;SDS011;26174;42.908;23.800;2023-04-03T15:43:45;1.35;;;1.25;;
40471;SDS011;26174;42.908;23.800;2023-04-03T15:46:10;3.10;;;1.17;;
40471;SDS011;26174;42.908;23.800;2023-04-03T15:48:37;6.28;;;1.77;;
40471;SDS011;26174;42.908;23.800;2023-04-03T15:51:03;2.15;;;1.92;;
40471;SDS011;26174;42.908;23.800;2023-04-03T15:53:31;7.50;;;3.38;;
40471;SDS011;26174;42.908;23.800;2023-04-03T15:55:56;2.55;;;1.75;;
40471;SDS011;26174;42.908;23.800;2023-04-03T15:58:22;3.60;;;1.88;;
40471;SDS011;26174;42.908;23.800;2023-04-03T16:00:47;2.65;;;1.15;;
40471;SDS011;26174;42.908;23.800;2023-04-03T16:03:17;14.65;;;2.47;;
40471;SDS011;26174;42.908;23.800;2023-04-03T16:05:43;5.60;;;1.27;;
40471;SDS011;26174;42.908;23.800;2023-04-03T16:10:54;0.98;;;0.88;;
40471;SDS011;26174;42.908;23.800;2023-04-03T16:13:19;5.93;;;2.97;;
40471;SDS011;26174;42.908;23.800;2023-04-03T16:15:45;2.10;;;1.83;;
40471;SDS011;26174;42.908;23.800;2023-04-03T16:18:10;1.65;;;1.27;;
40471;SDS011;26174;42.908;23.800;2023-04-03T16:20:38;1.38;;;1.27;;
40471;SDS011;26174;42.908;23.800;2023-04-03T16:23:04;0.90;;;0.88;;
40471;SDS011;26174;42.908;23.800;2023-04-03T16:25:30;1.05;;;0.75;;
40471;SDS011;26174;42.908;23.800;2023-04-03T16:27:56;1.05;;;0.55;;
40471;SDS011;26174;42.908;23.800;2023-04-03T16:30:21;1.48;;;1.17;;
40471;SDS011;26174;42.908;23.800;2023-04-03T16:32:47;1.55;;;1.45;;
40471;SDS011;26174;42.908;23.800;2023-04-03T16:35:13;0.75;;;0.75;;
40471;SDS011;26174;42.908;23.800;2023-04-03T16:37:39;2.70;;;1.17;;
40471;SDS011;26174;42.908;23.800;2023-04-03T16:40:05;0.70;;;0.70;;
40471;SDS011;26174;42.908;23.800;2023-04-03T16:42:31;4.03;;;1.13;;
40471;SDS011;26174;42.908;23.800;2023-04-03T16:44:57;1.67;;;1.58;;
40471;SDS011;26174;42.908;23.800;2023-04-03T16:47:25;3.03;;;1.98;;
40471;SDS011;26174;42.908;23.800;2023-04-03T16:49:50;15.23;;;9.30;;
40471;SDS011;26174;42.908;23.800;2023-04-03T16:52:19;3.95;;;2.95;;
40471;SDS011;26174;42.908;23.800;2023-04-03T16:54:50;4.40;;;2.45;;
40471;SDS011;26174;42.908;23.800;2023-04-03T16:57:20;9.63;;;5.47;;
40471;SDS011;26174;42.908;23.800;2023-04-03T16:59:47;2.40;;;2.03;;
40471;SDS011;26174;42.908;23.800;2023-04-03T17:02:12;0.95;;;0.90;;